sensor_id;sensor_type;location;lat;lon;timestamp;pressure;altitude;pressure_sealevel;temperature;humidity
6204;BME280;3135;42.602;23.468;2023-12-29T00:02:07;149774.63;;;1.64;100.00
6204;BME280;3135;42.602;23.468;2023-12-29T00:04:33;149814.56;;;1.80;100.00
6204;BME280;3135;42.602;23.468;2023-12-29T00:06:58;149826.16;;;1.85;100.00
6204;BME280;3135;42.602;23.468;2023-12-29T00:09:23;149850.59;;;1.94;100.00
6204;BME280;3135;42.602;23.468;2023-12-29T00:11:50;149850.59;;;1.94;100.00
6204;BME280;3135;42.602;23.468;2023-12-29T00:14:16;149836.44;;;1.89;100.00
6204;BME280;3135;42.602;23.468;2023-12-29T00:16:41;149823.59;;;1.84;100.00
6204;BME280;3135;42.602;23.468;2023-12-29T00:19:07;149772.06;;;1.63;100.00
6204;BME280;3135;42.602;23.468;2023-12-29T00:21:32;149736.06;;;1.49;100.00
6204;BME280;3135;42.602;23.468;2023-12-29T00:23:58;149783.66;;;1.68;100.00
6204;BME280;3135;42.602;23.468;2023-12-29T00:26:23;149778.53;;;1.66;100.00
6204;BME280;3135;42.602;23.468;2023-12-29T00:28:49;149781.09;;;1.67;100.00
6204;BME280;3135;42.602;23.468;2023-12-29T00:31:15;149818.41;;;1.82;100.00
6204;BME280;3135;42.602;23.468;2023-12-29T00:33:41;149768.22;;;1.62;100.00
6204;BME280;3135;42.602;23.468;2023-12-29T00:36:07;149801.69;;;1.75;100.00
6204;BME280;3135;42.602;23.468;2023-12-29T00:38:34;149788.84;;;1.70;100.00
6204;BME280;3135;42.602;23.468;2023-12-29T00:40:59;149751.47;;;1.55;100.00
6204;BME280;3135;42.602;23.468;2023-12-29T00:43:25;149685.88;;;1.29;100.00
6204;BME280;3135;42.602;23.468;2023-12-29T00:45:50;149760.50;;;1.59;100.00
6204;BME280;3135;42.602;23.468;2023-12-29T00:48:16;149752.81;;;1.56;100.00
6204;BME280;3135;42.602;23.468;2023-12-29T00:50:42;149662.72;;;1.20;100.00
6204;BME280;3135;42.602;23.468;2023-12-29T00:53:07;149736.06;;;1.49;100.00
6204;BME280;3135;42.602;23.468;2023-12-29T00:55:32;149763.06;;;1.60;100.00
6204;BME280;3135;42.602;23.468;2023-12-29T00:57:58;149750.19;;;1.54;100.00
6204;BME280;3135;42.602;23.468;2023-12-29T01:00:23;149747.63;;;1.53;100.00
6204;BME280;3135;42.602;23.468;2023-12-29T01:02:49;149747.63;;;1.53;100.00
6204;BME280;3135;42.602;23.468;2023-12-29T01:05:15;149742.50;;;1.51;100.00
6204;BME280;3135;42.602;23.468;2023-12-29T01:07:41;149698.75;;;1.34;100.00
6204;BME280;3135;42.602;23.468;2023-12-29T01:10:08;149728.38;;;1.46;100.00
6204;BME280;3135;42.602;23.468;2023-12-29T01:12:33;149700.03;;;1.35;100.00
6204;BME280;3135;42.602;23.468;2023-12-29T01:14:58;149692.28;;;1.32;100.00
6204;BME280;3135;42.602;23.468;2023-12-29T01:17:24;149696.19;;;1.33;100.00
6204;BME280;3135;42.602;23.468;2023-12-29T01:19:49;149698.75;;;1.34;100.00
6204;BME280;3135;42.602;23.468;2023-12-29T01:22:15;149715.44;;;1.41;100.00
6204;BME280;3135;42.602;23.468;2023-12-29T01:24:40;149697.47;;;1.34;100.00
6204;BME280;3135;42.602;23.468;2023-12-29T01:27:06;149696.19;;;1.33;100.00
6204;BME280;3135;42.602;23.468;2023-12-29T01:29:31;149707.75;;;1.38;100.00
6204;BME280;3135;42.602;23.468;2023-12-29T01:31:56;149655.00;;;1.17;100.00
6204;BME280;3135;42.602;23.468;2023-12-29T01:34:22;149631.84;;;1.08;100.00
6204;BME280;3135;42.602;23.468;2023-12-29T01:36:47;149643.44;;;1.12;100.00
6204;BME280;3135;42.602;23.468;2023-12-29T01:39:13;149660.16;;;1.19;100.00
6204;BME280;3135;42.602;23.468;2023-12-29T01:41:38;149685.88;;;1.29;100.00
6204;BME280;3135;42.602;23.468;2023-12-29T01:44:17;149662.72;;;1.20;100.00
6204;BME280;3135;42.602;23.468;2023-12-29T01:46:44;149637.00;;;1.10;100.00
6204;BME280;3135;42.602;23.468;2023-12-29T01:49:13;149647.31;;;1.14;100.00
6204;BME280;3135;42.602;23.468;2023-12-29T01:51:41;149625.44;;;1.05;100.00
6204;BME280;3135;42.602;23.468;2023-12-29T01:54:07;149585.53;;;0.89;100.00
6204;BME280;3135;42.602;23.468;2023-12-29T01:56:33;149646.03;;;1.13;100.00
6204;BME280;3135;42.602;23.468;2023-12-29T01:58:58;149698.75;;;1.34;100.00
6204;BME280;3135;42.602;23.468;2023-12-29T02:01:23;149729.66;;;1.46;100.00
6204;BME280;3135;42.602;23.468;2023-12-29T02:03:49;149716.78;;;1.41;100.00
6204;BME280;3135;42.602;23.468;2023-12-29T02:06:15;149696.19;;;1.33;100.00
6204;BME280;3135;42.602;23.468;2023-12-29T02:08:41;149694.91;;;1.33;100.00
6204;BME280;3135;42.602;23.468;2023-12-29T02:11:07;149691.00;;;1.31;100.00
6204;BME280;3135;42.602;23.468;2023-12-29T02:13:32;149679.44;;;1.26;100.00
6204;BME280;3135;42.602;23.468;2023-12-29T02:16:23;149673.03;;;1.24;100.00
6204;BME280;3135;42.602;23.468;2023-12-29T02:18:49;149698.75;;;1.34;100.00
6204;BME280;3135;42.602;23.468;2023-12-29T02:21:15;149638.28;;;1.10;100.00
6204;BME280;3135;42.602;23.468;2023-12-29T02:23:41;149611.31;;;0.99;100.00
6204;BME280;3135;42.602;23.468;2023-12-29T02:26:10;149649.88;;;1.15;100.00
6204;BME280;3135;42.602;23.468;2023-12-29T02:28:44;149603.56;;;0.96;100.00
6204;BME280;3135;42.602;23.468;2023-12-29T02:31:16;149619.00;;;1.02;100.00
6204;BME280;3135;42.602;23.468;2023-12-29T02:33:45;149643.44;;;1.12;100.00
6204;BME280;3135;42.602;23.468;2023-12-29T02:36:13;149644.69;;;1.13;100.00
6204;BME280;3135;42.602;23.468;2023-12-29T02:38:41;149640.88;;;1.11;100.00
6204;BME280;3135;42.602;23.468;2023-12-29T02:41:07;149577.88;;;0.86;100.00
6204;BME280;3135;42.602;23.468;2023-12-29T02:43:32;149634.44;;;1.09;100.00
6204;BME280;3135;42.602;23.468;2023-12-29T02:45:58;149526.41;;;0.66;100.00
6204;BME280;3135;42.602;23.468;2023-12-29T02:48:24;149620.28;;;1.03;100.00
6204;BME280;3135;42.602;23.468;2023-12-29T02:50:49;149619.00;;;1.02;100.00
6204;BME280;3135;42.602;23.468;2023-12-29T02:53:15;149626.72;;;1.06;100.00
6204;BME280;3135;42.602;23.468;2023-12-29T02:55:41;149655.00;;;1.17;100.00
6204;BME280;3135;42.602;23.468;2023-12-29T02:58:07;149601.00;;;0.95;100.00
6204;BME280;3135;42.602;23.468;2023-12-29T03:00:32;149603.56;;;0.96;100.00
6204;BME280;3135;42.602;23.468;2023-12-29T03:02:58;149602.28;;;0.96;100.00
6204;BME280;3135;42.602;23.468;2023-12-29T03:05:23;149592.00;;;0.92;100.00
6204;BME280;3135;42.602;23.468;2023-12-29T03:07:49;149597.13;;;0.94;100.00
6204;BME280;3135;42.602;23.468;2023-12-29T03:10:14;149608.69;;;0.98;100.00
6204;BME280;3135;42.602;23.468;2023-12-29T03:12:40;149562.44;;;0.80;100.00
6204;BME280;3135;42.602;23.468;2023-12-29T03:15:05;149579.16;;;0.87;100.00
6204;BME280;3135;42.602;23.468;2023-12-29T03:17:31;149550.88;;;0.75;100.00
6204;BME280;3135;42.602;23.468;2023-12-29T03:19:56;149573.97;;;0.85;100.00
6204;BME280;3135;42.602;23.468;2023-12-29T03:22:22;149584.25;;;0.89;100.00
6204;BME280;3135;42.602;23.468;2023-12-29T03:24:48;149565.00;;;0.81;100.00
6204;BME280;3135;42.602;23.468;2023-12-29T03:27:13;149586.88;;;0.90;100.00
6204;BME280;3135;42.602;23.468;2023-12-29T03:29:39;149604.84;;;0.97;100.00
6204;BME280;3135;42.602;23.468;2023-12-29T03:32:04;149604.84;;;0.97;100.00
6204;BME280;3135;42.602;23.468;2023-12-29T03:34:30;149603.56;;;0.96;100.00
6204;BME280;3135;42.602;23.468;2023-12-29T03:36:56;149621.59;;;1.04;100.00
6204;BME280;3135;42.602;23.468;2023-12-29T03:39:21;149575.31;;;0.85;100.00
6204;BME280;3135;42.602;23.468;2023-12-29T03:41:46;149512.25;;;0.60;100.00
6204;BME280;3135;42.602;23.468;2023-12-29T03:44:12;149576.59;;;0.86;100.00
6204;BME280;3135;42.602;23.468;2023-12-29T03:46:37;149567.56;;;0.82;100.00
6204;BME280;3135;42.602;23.468;2023-12-29T03:49:03;149571.41;;;0.84;100.00
6204;BME280;3135;42.602;23.468;2023-12-29T03:51:29;149566.28;;;0.82;100.00
6204;BME280;3135;42.602;23.468;2023-12-29T03:53:54;149597.13;;;0.94;100.00
6204;BME280;3135;42.602;23.468;2023-12-29T03:56:19;149580.41;;;0.87;100.00
6204;BME280;3135;42.602;23.468;2023-12-29T03:58:46;149543.13;;;0.72;100.00
6204;BME280;3135;42.602;23.468;2023-12-29T04:01:12;149559.84;;;0.79;100.00
6204;BME280;3135;42.602;23.468;2023-12-29T04:03:38;149557.28;;;0.78;100.00
6204;BME280;3135;42.602;23.468;2023-12-29T04:06:04;149549.53;;;0.75;100.00
6204;BME280;3135;42.602;23.468;2023-12-29T04:08:30;149561.13;;;0.80;100.00
6204;BME280;3135;42.602;23.468;2023-12-29T04:10:55;149516.16;;;0.62;100.00
6204;BME280;3135;42.602;23.468;2023-12-29T04:13:20;149499.41;;;0.55;100.00
6204;BME280;3135;42.602;23.468;2023-12-29T04:15:46;149537.97;;;0.70;100.00
6204;BME280;3135;42.602;23.468;2023-12-29T04:18:11;149516.16;;;0.62;100.00
6204;BME280;3135;42.602;23.468;2023-12-29T04:20:37;149480.16;;;0.47;100.00
6204;BME280;3135;42.602;23.468;2023-12-29T04:23:03;149442.84;;;0.33;100.00
6204;BME280;3135;42.602;23.468;2023-12-29T04:25:29;149490.41;;;0.51;100.00
6204;BME280;3135;42.602;23.468;2023-12-29T04:27:54;149504.59;;;0.57;100.00
6204;BME280;3135;42.602;23.468;2023-12-29T04:30:19;149494.28;;;0.53;100.00
6204;BME280;3135;42.602;23.468;2023-12-29T04:32:45;149510.97;;;0.60;100.00
6204;BME280;3135;42.602;23.468;2023-12-29T04:35:10;149480.16;;;0.47;100.00
6204;BME280;3135;42.602;23.468;2023-12-29T04:37:38;149480.16;;;0.47;100.00
6204;BME280;3135;42.602;23.468;2023-12-29T04:40:04;149498.13;;;0.55;100.00
6204;BME280;3135;42.602;23.468;2023-12-29T04:42:30;149467.25;;;0.42;100.00
6204;BME280;3135;42.602;23.468;2023-12-29T04:44:55;149446.72;;;0.34;100.00
6204;BME280;3135;42.602;23.468;2023-12-29T04:47:20;149413.31;;;0.21;100.00
6204;BME280;3135;42.602;23.468;2023-12-29T04:49:46;149397.91;;;0.15;100.00
6204;BME280;3135;42.602;23.468;2023-12-29T04:52:11;149455.75;;;0.38;100.00
6204;BME280;3135;42.602;23.468;2023-12-29T04:54:37;149469.88;;;0.43;100.00
6204;BME280;3135;42.602;23.468;2023-12-29T04:57:02;149527.72;;;0.66;100.00
6204;BME280;3135;42.602;23.468;2023-12-29T04:59:28;149476.28;;;0.46;100.00
6204;BME280;3135;42.602;23.468;2023-12-29T05:01:53;149476.28;;;0.46;100.00
6204;BME280;3135;42.602;23.468;2023-12-29T05:04:19;149469.88;;;0.43;100.00
6204;BME280;3135;42.602;23.468;2023-12-29T05:06:44;149463.44;;;0.41;100.00
6204;BME280;3135;42.602;23.468;2023-12-29T05:09:10;149427.44;;;0.27;100.00
6204;BME280;3135;42.602;23.468;2023-12-29T05:11:35;149460.84;;;0.40;100.00
6204;BME280;3135;42.602;23.468;2023-12-29T05:14:00;149490.41;;;0.51;100.00
6204;BME280;3135;42.602;23.468;2023-12-29T05:16:26;149498.13;;;0.55;100.00
6204;BME280;3135;42.602;23.468;2023-12-29T05:18:51;149472.44;;;0.44;100.00
6204;BME280;3135;42.602;23.468;2023-12-29T05:21:17;149469.88;;;0.43;100.00
6204;BME280;3135;42.602;23.468;2023-12-29T05:23:46;149444.19;;;0.33;100.00
6204;BME280;3135;42.602;23.468;2023-12-29T05:26:13;149455.75;;;0.38;100.00
6204;BME280;3135;42.602;23.468;2023-12-29T05:28:39;149477.56;;;0.46;100.00
6204;BME280;3135;42.602;23.468;2023-12-29T05:31:05;149517.44;;;0.62;100.00
6204;BME280;3135;42.602;23.468;2023-12-29T05:33:31;149476.28;;;0.46;100.00
6204;BME280;3135;42.602;23.468;2023-12-29T05:35:57;149450.56;;;0.36;100.00
6204;BME280;3135;42.602;23.468;2023-12-29T05:38:23;149491.72;;;0.52;100.00
6204;BME280;3135;42.602;23.468;2023-12-29T05:40:48;149487.84;;;0.50;100.00
6204;BME280;3135;42.602;23.468;2023-12-29T05:43:15;149467.25;;;0.42;100.00
6204;BME280;3135;42.602;23.468;2023-12-29T05:45:40;149437.72;;;0.31;100.00
6204;BME280;3135;42.602;23.468;2023-12-29T05:48:06;149465.97;;;0.42;100.00
6204;BME280;3135;42.602;23.468;2023-12-29T05:50:32;149489.13;;;0.51;100.00
6204;BME280;3135;42.602;23.468;2023-12-29T05:52:57;149436.44;;;0.30;100.00
6204;BME280;3135;42.602;23.468;2023-12-29T05:55:23;149485.28;;;0.49;100.00
6204;BME280;3135;42.602;23.468;2023-12-29T05:57:48;149440.28;;;0.32;100.00
6204;BME280;3135;42.602;23.468;2023-12-29T06:00:14;149428.72;;;0.27;100.00
6204;BME280;3135;42.602;23.468;2023-12-29T06:02:43;149421.03;;;0.24;100.00
6204;BME280;3135;42.602;23.468;2023-12-29T06:05:12;149388.91;;;0.11;100.00
6204;BME280;3135;42.602;23.468;2023-12-29T06:07:38;149395.28;;;0.14;100.00
6204;BME280;3135;42.602;23.468;2023-12-29T06:10:04;149374.78;;;0.06;100.00
6204;BME280;3135;42.602;23.468;2023-12-29T06:12:29;149379.88;;;0.08;100.00
6204;BME280;3135;42.602;23.468;2023-12-29T06:14:55;149356.75;;;-0.02;100.00
6204;BME280;3135;42.602;23.468;2023-12-29T06:17:20;149361.94;;;0.01;100.00
6204;BME280;3135;42.602;23.468;2023-12-29T06:19:46;149309.22;;;-0.20;100.00
6204;BME280;3135;42.602;23.468;2023-12-29T06:22:11;149325.94;;;-0.14;100.00
6204;BME280;3135;42.602;23.468;2023-12-29T06:24:37;149318.22;;;-0.17;100.00
6204;BME280;3135;42.602;23.468;2023-12-29T06:27:03;149300.22;;;-0.24;100.00
6204;BME280;3135;42.602;23.468;2023-12-29T06:29:28;149331.06;;;-0.12;100.00
6204;BME280;3135;42.602;23.468;2023-12-29T06:31:54;149256.56;;;-0.41;100.00
6204;BME280;3135;42.602;23.468;2023-12-29T06:34:20;149301.53;;;-0.23;100.00
6204;BME280;3135;42.602;23.468;2023-12-29T06:36:45;149342.63;;;-0.07;100.00
6204;BME280;3135;42.602;23.468;2023-12-29T06:39:11;149333.63;;;-0.11;100.00
6204;BME280;3135;42.602;23.468;2023-12-29T06:41:37;149322.06;;;-0.15;100.00
6204;BME280;3135;42.602;23.468;2023-12-29T06:44:02;149315.66;;;-0.18;100.00
6204;BME280;3135;42.602;23.468;2023-12-29T06:46:28;149346.47;;;-0.06;100.00
6204;BME280;3135;42.602;23.468;2023-12-29T06:48:53;149342.63;;;-0.07;100.00
6204;BME280;3135;42.602;23.468;2023-12-29T06:51:19;149337.50;;;-0.09;100.00
6204;BME280;3135;42.602;23.468;2023-12-29T06:53:48;149338.78;;;-0.09;100.00
6204;BME280;3135;42.602;23.468;2023-12-29T06:56:15;149325.94;;;-0.14;100.00
6204;BME280;3135;42.602;23.468;2023-12-29T06:58:41;149346.47;;;-0.06;100.00
6204;BME280;3135;42.602;23.468;2023-12-29T07:01:07;149410.75;;;0.20;100.00
6204;BME280;3135;42.602;23.468;2023-12-29T07:03:33;149392.72;;;0.13;100.00
6204;BME280;3135;42.602;23.468;2023-12-29T07:06:00;149385.06;;;0.10;100.00
6204;BME280;3135;42.602;23.468;2023-12-29T07:08:26;149376.06;;;0.06;100.00
6204;BME280;3135;42.602;23.468;2023-12-29T07:10:52;149397.91;;;0.15;100.00
6204;BME280;3135;42.602;23.468;2023-12-29T07:13:17;149395.28;;;0.14;100.00
6204;BME280;3135;42.602;23.468;2023-12-29T07:15:43;149422.31;;;0.24;100.00
6204;BME280;3135;42.602;23.468;2023-12-29T07:18:08;149445.47;;;0.34;100.00
6204;BME280;3135;42.602;23.468;2023-12-29T07:20:34;149377.34;;;0.07;100.00
6204;BME280;3135;42.602;23.468;2023-12-29T07:23:00;149379.88;;;0.08;100.00
6204;BME280;3135;42.602;23.468;2023-12-29T07:25:26;149432.59;;;0.29;100.00
6204;BME280;3135;42.602;23.468;2023-12-29T07:27:51;149383.72;;;0.09;100.00
6204;BME280;3135;42.602;23.468;2023-12-29T07:30:18;149449.28;;;0.35;100.00
6204;BME280;3135;42.602;23.468;2023-12-29T07:32:43;149442.84;;;0.33;100.00
6204;BME280;3135;42.602;23.468;2023-12-29T07:35:09;149451.84;;;0.36;100.00
6204;BME280;3135;42.602;23.468;2023-12-29T07:37:34;149503.31;;;0.57;100.00
6204;BME280;3135;42.602;23.468;2023-12-29T07:40:00;149491.72;;;0.52;100.00
6204;BME280;3135;42.602;23.468;2023-12-29T07:42:25;149482.72;;;0.48;100.00
6204;BME280;3135;42.602;23.468;2023-12-29T07:44:51;149455.75;;;0.38;100.00
6204;BME280;3135;42.602;23.468;2023-12-29T07:47:17;149476.28;;;0.46;100.00
6204;BME280;3135;42.602;23.468;2023-12-29T07:49:42;149512.25;;;0.60;100.00
6204;BME280;3135;42.602;23.468;2023-12-29T07:52:08;149496.84;;;0.54;100.00
6204;BME280;3135;42.602;23.468;2023-12-29T07:54:34;149491.72;;;0.52;100.00
6204;BME280;3135;42.602;23.468;2023-12-29T07:56:59;149544.44;;;0.73;100.00
6204;BME280;3135;42.602;23.468;2023-12-29T07:59:25;149534.13;;;0.69;100.00
6204;BME280;3135;42.602;23.468;2023-12-29T08:01:50;149500.69;;;0.56;100.00
6204;BME280;3135;42.602;23.468;2023-12-29T08:04:16;149536.69;;;0.70;100.00
6204;BME280;3135;42.602;23.468;2023-12-29T08:06:41;149505.88;;;0.58;100.00
6204;BME280;3135;42.602;23.468;2023-12-29T08:09:07;149553.44;;;0.76;100.00
6204;BME280;3135;42.602;23.468;2023-12-29T08:11:33;149563.72;;;0.81;100.00
6204;BME280;3135;42.602;23.468;2023-12-29T08:13:58;149529.00;;;0.67;100.00
6204;BME280;3135;42.602;23.468;2023-12-29T08:16:24;149582.97;;;0.88;100.00
6204;BME280;3135;42.602;23.468;2023-12-29T08:18:49;149585.53;;;0.89;100.00
6204;BME280;3135;42.602;23.468;2023-12-29T08:21:21;149628.00;;;1.06;100.00
6204;BME280;3135;42.602;23.468;2023-12-29T08:23:48;149616.44;;;1.01;100.00
6204;BME280;3135;42.602;23.468;2023-12-29T08:26:14;149622.88;;;1.04;100.00
6204;BME280;3135;42.602;23.468;2023-12-29T08:28:40;149644.69;;;1.13;100.00
6204;BME280;3135;42.602;23.468;2023-12-29T08:31:07;149595.84;;;0.93;100.00
6204;BME280;3135;42.602;23.468;2023-12-29T08:33:33;149685.88;;;1.29;100.00
6204;BME280;3135;42.602;23.468;2023-12-29T08:35:58;149673.03;;;1.24;100.00
6204;BME280;3135;42.602;23.468;2023-12-29T08:38:29;149682.03;;;1.27;100.00
6204;BME280;3135;42.602;23.468;2023-12-29T08:40:55;149619.00;;;1.02;100.00
6204;BME280;3135;42.602;23.468;2023-12-29T08:43:21;149639.59;;;1.11;100.00
6204;BME280;3135;42.602;23.468;2023-12-29T08:45:47;149644.69;;;1.13;100.00
6204;BME280;3135;42.602;23.468;2023-12-29T08:48:13;149657.59;;;1.18;100.00
6204;BME280;3135;42.602;23.468;2023-12-29T08:50:38;149689.72;;;1.31;100.00
6204;BME280;3135;42.602;23.468;2023-12-29T08:53:04;149675.59;;;1.25;100.00
6204;BME280;3135;42.602;23.468;2023-12-29T08:55:29;149646.03;;;1.13;100.00
6204;BME280;3135;42.602;23.468;2023-12-29T08:57:57;149701.31;;;1.35;100.00
6204;BME280;3135;42.602;23.468;2023-12-29T09:00:22;149747.63;;;1.53;100.00
6204;BME280;3135;42.602;23.468;2023-12-29T09:02:48;149800.41;;;1.74;100.00
6204;BME280;3135;42.602;23.468;2023-12-29T09:05:13;149797.81;;;1.73;100.00
6204;BME280;3135;42.602;23.468;2023-12-29T09:07:41;149849.31;;;1.94;100.00
6204;BME280;3135;42.602;23.468;2023-12-29T09:10:07;149894.31;;;2.12;100.00
6204;BME280;3135;42.602;23.468;2023-12-29T09:12:35;149900.78;;;2.14;100.00
6204;BME280;3135;42.602;23.468;2023-12-29T09:15:01;149936.84;;;2.28;100.00
6204;BME280;3135;42.602;23.468;2023-12-29T09:17:27;149943.28;;;2.31;100.00
6204;BME280;3135;42.602;23.468;2023-12-29T09:19:52;150005.09;;;2.55;100.00
6204;BME280;3135;42.602;23.468;2023-12-29T09:22:18;149979.34;;;2.45;100.00
6204;BME280;3135;42.602;23.468;2023-12-29T09:24:43;150007.66;;;2.56;100.00
6204;BME280;3135;42.602;23.468;2023-12-29T09:27:09;150005.09;;;2.55;100.00
6204;BME280;3135;42.602;23.468;2023-12-29T09:29:34;150060.44;;;2.77;100.00
6204;BME280;3135;42.602;23.468;2023-12-29T09:32:00;150093.94;;;2.91;100.00
6204;BME280;3135;42.602;23.468;2023-12-29T09:34:25;150029.53;;;2.65;100.00
6204;BME280;3135;42.602;23.468;2023-12-29T09:36:50;150079.78;;;2.85;100.00
6204;BME280;3135;42.602;23.468;2023-12-29T09:39:16;150081.06;;;2.86;100.00
6204;BME280;3135;42.602;23.468;2023-12-29T09:41:43;150117.13;;;3.00;100.00
6204;BME280;3135;42.602;23.468;2023-12-29T09:44:14;150073.34;;;2.83;100.00
6204;BME280;3135;42.602;23.468;2023-12-29T09:46:41;150046.28;;;2.72;100.00
6204;BME280;3135;42.602;23.468;2023-12-29T09:49:08;150133.91;;;3.06;100.00
6204;BME280;3135;42.602;23.468;2023-12-29T09:51:34;150230.53;;;3.45;100.00
6204;BME280;3135;42.602;23.468;2023-12-29T09:54:01;150260.16;;;3.56;100.00
6204;BME280;3135;42.602;23.468;2023-12-29T09:56:27;150234.38;;;3.46;100.00
6204;BME280;3135;42.602;23.468;2023-12-29T09:58:54;150304.00;;;3.74;100.00
6204;BME280;3135;42.602;23.468;2023-12-29T10:01:21;150316.88;;;3.79;100.00
6204;BME280;3135;42.602;23.468;2023-12-29T10:03:47;150352.97;;;3.93;100.00
6204;BME280;3135;42.602;23.468;2023-12-29T10:06:18;150280.78;;;3.65;100.00
6204;BME280;3135;42.602;23.468;2023-12-29T10:08:45;150296.22;;;3.71;100.00
6204;BME280;3135;42.602;23.468;2023-12-29T10:11:13;150307.84;;;3.75;100.00
6204;BME280;3135;42.602;23.468;2023-12-29T10:13:42;150291.09;;;3.69;100.00
6204;BME280;3135;42.602;23.468;2023-12-29T10:16:38;150347.84;;;3.91;100.00
6204;BME280;3135;42.602;23.468;2023-12-29T10:19:18;150372.31;;;4.01;100.00
6204;BME280;3135;42.602;23.468;2023-12-29T10:22:26;150411.00;;;4.16;100.00
6204;BME280;3135;42.602;23.468;2023-12-29T10:24:43;150329.75;;;3.84;100.00
6204;BME280;3135;42.602;23.468;2023-12-29T10:27:11;150398.09;;;4.11;100.00
6204;BME280;3135;42.602;23.468;2023-12-29T10:29:37;150440.63;;;4.28;100.00
6204;BME280;3135;42.602;23.468;2023-12-29T10:32:03;150394.25;;;4.09;100.00
6204;BME280;3135;42.602;23.468;2023-12-29T10:34:28;150440.63;;;4.28;100.00
6204;BME280;3135;42.602;23.468;2023-12-29T10:36:55;150420.03;;;4.20;100.00
6204;BME280;3135;42.602;23.468;2023-12-29T10:39:20;150463.84;;;4.37;100.00
6204;BME280;3135;42.602;23.468;2023-12-29T10:41:46;150430.34;;;4.24;100.00
6204;BME280;3135;42.602;23.468;2023-12-29T10:44:12;150421.31;;;4.20;100.00
6204;BME280;3135;42.602;23.468;2023-12-29T10:46:37;150425.16;;;4.22;100.00
6204;BME280;3135;42.602;23.468;2023-12-29T10:49:07;150412.28;;;4.17;100.00
6204;BME280;3135;42.602;23.468;2023-12-29T10:51:34;150453.56;;;4.33;100.00
6204;BME280;3135;42.602;23.468;2023-12-29T10:53:59;150470.31;;;4.40;100.00
6204;BME280;3135;42.602;23.468;2023-12-29T10:56:25;150460.00;;;4.35;100.00
6204;BME280;3135;42.602;23.468;2023-12-29T10:59:02;150452.25;;;4.32;100.00
6204;BME280;3135;42.602;23.468;2023-12-29T11:01:33;150506.44;;;4.54;100.00
6204;BME280;3135;42.602;23.468;2023-12-29T11:04:00;150590.28;;;4.87;100.00
6204;BME280;3135;42.602;23.468;2023-12-29T11:06:27;150636.75;;;5.05;100.00
6204;BME280;3135;42.602;23.468;2023-12-29T11:08:53;150586.44;;;4.85;100.00
6204;BME280;3135;42.602;23.468;2023-12-29T11:11:19;150600.63;;;4.91;100.00
6204;BME280;3135;42.602;23.468;2023-12-29T11:13:46;150620.00;;;4.99;100.00
6204;BME280;3135;42.602;23.468;2023-12-29T11:16:12;150618.66;;;4.98;100.00
6204;BME280;3135;42.602;23.468;2023-12-29T11:18:38;150649.66;;;5.10;100.00
6204;BME280;3135;42.602;23.468;2023-12-29T11:21:05;150675.44;;;5.21;100.00
6204;BME280;3135;42.602;23.468;2023-12-29T11:23:31;150636.75;;;5.05;100.00
6204;BME280;3135;42.602;23.468;2023-12-29T11:25:57;150601.91;;;4.92;100.00
6204;BME280;3135;42.602;23.468;2023-12-29T11:28:25;150652.22;;;5.11;100.00
6204;BME280;3135;42.602;23.468;2023-12-29T11:30:51;150690.91;;;5.27;100.00
6204;BME280;3135;42.602;23.468;2023-12-29T11:33:24;150654.78;;;5.12;100.00
6204;BME280;3135;42.602;23.468;2023-12-29T11:35:53;150697.41;;;5.29;100.00
6204;BME280;3135;42.602;23.468;2023-12-29T11:44:09;150659.97;;;5.15;100.00
6204;BME280;3135;42.602;23.468;2023-12-29T11:46:35;150689.63;;;5.26;100.00
6204;BME280;3135;42.602;23.468;2023-12-29T11:49:01;150688.34;;;5.26;100.00
6204;BME280;3135;42.602;23.468;2023-12-29T11:51:33;150680.63;;;5.23;100.00
6204;BME280;3135;42.602;23.468;2023-12-29T11:54:03;150565.78;;;4.77;100.00
6204;BME280;3135;42.602;23.468;2023-12-29T11:56:37;150607.03;;;4.94;100.00
6204;BME280;3135;42.602;23.468;2023-12-29T11:59:23;150598.03;;;4.90;100.00
6204;BME280;3135;42.602;23.468;2023-12-29T12:01:54;150613.50;;;4.96;100.00
6204;BME280;3135;42.602;23.468;2023-12-29T12:04:41;150639.31;;;5.06;100.00
6204;BME280;3135;42.602;23.468;2023-12-29T12:07:15;150589.00;;;4.86;100.00
6204;BME280;3135;42.602;23.468;2023-12-29T12:09:40;150592.84;;;4.88;100.00
6204;BME280;3135;42.602;23.468;2023-12-29T12:12:06;150599.31;;;4.91;100.00
6204;BME280;3135;42.602;23.468;2023-12-29T12:14:44;150589.00;;;4.86;100.00
6204;BME280;3135;42.602;23.468;2023-12-29T12:17:10;150574.81;;;4.81;100.00
6204;BME280;3135;42.602;23.468;2023-12-29T12:19:36;150647.06;;;5.09;100.00
6204;BME280;3135;42.602;23.468;2023-12-29T12:22:01;150638.03;;;5.06;100.00
6204;BME280;3135;42.602;23.468;2023-12-29T12:24:28;150634.16;;;5.04;100.00
6204;BME280;3135;42.602;23.468;2023-12-29T12:26:54;150605.75;;;4.93;100.00
6204;BME280;3135;42.602;23.468;2023-12-29T12:29:20;150604.47;;;4.93;100.00
6204;BME280;3135;42.602;23.468;2023-12-29T12:32:12;150565.78;;;4.77;100.00
6204;BME280;3135;42.602;23.468;2023-12-29T12:34:41;150547.69;;;4.70;100.00
6204;BME280;3135;42.602;23.468;2023-12-29T12:37:06;150559.31;;;4.75;100.00
6204;BME280;3135;42.602;23.468;2023-12-29T12:39:41;150621.28;;;4.99;100.00
6204;BME280;3135;42.602;23.468;2023-12-29T12:42:07;150570.91;;;4.79;100.00
6204;BME280;3135;42.602;23.468;2023-12-29T12:44:32;150577.38;;;4.82;100.00
6204;BME280;3135;42.602;23.468;2023-12-29T12:46:59;150568.34;;;4.78;100.00
6204;BME280;3135;42.602;23.468;2023-12-29T12:49:28;150592.84;;;4.88;100.00
6204;BME280;3135;42.602;23.468;2023-12-29T12:51:55;150621.28;;;4.99;100.00
6204;BME280;3135;42.602;23.468;2023-12-29T12:54:21;150590.28;;;4.87;100.00
6204;BME280;3135;42.602;23.468;2023-12-29T12:56:47;150556.72;;;4.74;100.00
6204;BME280;3135;42.602;23.468;2023-12-29T12:59:14;150613.50;;;4.96;100.00
6204;BME280;3135;42.602;23.468;2023-12-29T13:01:41;150559.31;;;4.75;100.00
6204;BME280;3135;42.602;23.468;2023-12-29T13:04:08;150573.53;;;4.80;100.00